Latest Coastal Weather Observations for Ngayawili (Elcho Island)

IDD60701

Issued at 4:05 am CST Saturday 1 November 2014 (issued every 10 minutes, with the page automatically refreshed every 10 minutes)

About coastal observations | Map of coastal stations | Coastal observations for NT | Marine services | Other Formats
Station Details ID: 014517 Name: NGAYAWILI Lat: -12.00 Lon: 135.57 Height: 8.1 m
Data from the previous 72 hours. | See also: Recent months at Ngayawili (Elcho Island)
Date/Time
CST
Temp

°C
Wind Pressure Rain
since 9am
mm
Weather Cloud Vis
km
Sea
Height
m
Swell
Dir
 
Speed
knots
Gust
knots
hPa Trend Height
m
Period
s
Dir
01/04:00am 21.3 E 5 6 1017.6 - - - - - - - - -
01/03:30am 20.9 E 5 6 1009.1 - - - - - - - - -
01/03:00am 22.4 E 5 6 1017.6 - - - - - - - - -
01/02:30am 22.5 E 5 6 1017.7 - - - - - - - - -
01/02:00am 22.6 E 5 6 1017.9 - - - - - - - - -
01/01:30am 22.4 E 5 6 1007.9 - - - - - - - - -
01/01:00am 22.6 - 5 6 1018.5 - - - - - - - - -
01/12:30am 21.5 NNE 5 6 1018.5 - 0.0 - - - - - - -
01/12:00am 21.2 NNE 5 6 1018.6 - 0.0 - - - - - - -
 
Date/Time
CST
Temp

°C
Wind Pressure Rain
since 9am
mm
Weather Cloud Vis
km
Sea
Height
m
Swell
Dir
 
Speed
knots
Gust
knots
hPa Trend Height
m
Period
s
Dir
31/11:30pm 21.4 NNE 5 6 1018.6 - 0.0 - - - - - - -
31/11:00pm 21.4 NNE 4 5 1009.1 - 0.0 - - - - - - -
31/10:30pm 22.8 NNE 6 7 1009.1 - 0.0 - - - - - - -
31/10:00pm 22.7 N 6 7 1010.3 - 0.0 - - - - - - -
31/09:30pm 23.5 N 4 6 1018.5 - 0.0 - - - - - - -
31/09:00pm 26.1 N 8 9 1008.7 - 0.0 - - - - - - -
31/08:30pm 26.3 N 9 11 1018.2 - 0.0 - - - - - - -
31/08:00pm 26.5 N 10 11 1017.8 - 0.0 - - - - - - -
31/07:30pm 26.6 N 10 12 1017.7 - 0.0 - - - - - - -
31/07:00pm 26.8 N 10 12 1008.9 - 0.0 - - - - - - -
31/06:30pm 26.9 N 8 10 1017.4 - 0.0 - - - - - - -
31/06:00pm 27.7 N 9 10 1017.4 - 0.0 - - - - - - -
31/05:30pm 28.1 N 9 11 1008.3 - 0.0 - - - - - - -
31/05:00pm 28.6 N 11 13 1017.2 - 0.0 - - - - - - -
31/04:30pm 29.1 N 10 12 1006.1 - 0.0 - - - - - - -
31/04:00pm 29.4 N 11 13 1017.4 - 0.0 - - - - - - -
31/03:30pm 29.3 N 12 14 1017.6 - 0.0 - - - - - - -
31/03:00pm 30.2 N 12 14 1017.8 - 0.0 - - - - - - -
31/02:30pm 29.9 N 11 13 1017.6 - 0.0 - - - - - - -
31/02:00pm 30.1 N 12 14 1007.6 - 0.0 - - - - - - -
31/01:30pm 30.4 N 12 14 1007.7 - 0.0 - - - - - - -
31/01:00pm 29.9 N 11 13 1010.1 - 0.0 - - - - - - -
31/12:30pm 30.4 N 13 16 1010.5 - 0.0 - - - - - - -
31/12:00pm 29.8 N 13 15 1009.4 - 0.0 - - - - - - -
31/11:30am 30.6 N 11 13 1018.4 - 0.0 - - - - - - -
31/11:00am 29.8 N 12 14 1018.1 - 0.0 - - - - - - -
31/10:30am 29.2 N 13 16 1010.5 - 0.0 - - - - - - -
31/10:00am 29.3 N 12 16 1012.3 - 0.0 - - - - - - -
31/09:30am 28.8 NNE 11 14 1017.8 - 0.0 - - - - - - -
31/09:00am 28.3 NNE 10 14 1017.4 - 0.0 - - - - - - -
31/08:30am 28.3 N 10 13 1010.7 - 0.0 - - - - - - -
31/08:00am 26.9 NNE 10 14 1016.6 - 0.0 - - - - - - -
31/07:30am 27.0 NNE 8 11 1010.3 - 0.0 - - - - - - -
31/07:00am 25.4 NE 7 11 1010.9 - 0.0 - - - - - - -
31/06:30am 22.9 NE 5 7 1015.7 - 0.0 - - - - - - -
31/06:00am 22.0 ENE 5 6 1015.2 - 0.0 - - - - - - -
31/05:30am 21.8 ENE 5 6 1014.7 - 0.0 - - - - - - -
31/05:00am 21.9 NE 5 6 1014.5 - 0.0 - - - - - - -
31/04:30am 22.3 NE 5 7 1008.3 - 0.0 - - - - - - -
31/04:00am 22.0 NE 5 6 1009.3 - 0.0 - - - - - - -
31/03:30am 22.5 NE 5 6 1009.0 - 0.0 - - - - - - -
31/03:00am 22.7 E 5 6 1007.8 - 0.0 - - - - - - -
31/02:30am 22.6 E 5 6 1009.1 - 0.0 - - - - - - -
31/02:00am 22.5 E 4 6 1008.2 - 0.0 - - - - - - -
31/01:30am 23.0 ENE 5 7 1008.3 - 0.0 - - - - - - -
31/01:00am 23.1 ENE 5 6 1013.4 - 0.0 - - - - - - -
31/12:30am 23.0 ENE 5 6 1009.7 - 0.0 - - - - - - -
31/12:00am 23.2 ENE 4 5 1013.5 - 0.0 - - - - - - -
 
Date/Time
CST
Temp

°C
Wind Pressure Rain
since 9am
mm
Weather Cloud Vis
km
Sea
Height
m
Swell
Dir
 
Speed
knots
Gust
knots
hPa Trend Height
m
Period
s
Dir
30/11:30pm 23.3 ENE 5 6 1010.0 - 0.0 - - - - - - -
30/11:00pm 23.5 NE 5 6 1013.8 - 0.0 - - - - - - -
30/10:30pm 23.7 NE 5 6 1009.0 - 0.0 - - - - - - -
30/10:00pm 23.6 NNE 5 6 1014.0 - 0.0 - - - - - - -
30/09:30pm 23.5 NNE 5 5 1013.9 - 0.0 - - - - - - -
30/09:00pm 23.9 NNE 5 6 1008.2 - 0.0 - - - - - - -
30/08:30pm 23.8 NNE 4 5 1009.2 - 0.0 - - - - - - -
30/08:00pm 23.9 NNE 4 5 1009.1 - 0.0 - - - - - - -
30/07:30pm 25.0 NNE 5 6 1007.3 - 0.0 - - - - - - -
30/07:00pm 26.0 N 5 6 1013.0 - 0.0 - - - - - - -
30/06:30pm 26.9 N 7 8 1013.0 - 0.0 - - - - - - -
30/06:00pm 27.5 N 7 9 1006.5 - 0.0 - - - - - - -
30/05:30pm 28.3 N 9 11 1012.9 - 0.0 - - - - - - -
30/05:00pm 28.8 N 9 11 1008.8 - 0.0 - - - - - - -
30/04:30pm 29.1 N 9 12 1006.3 - 0.0 - - - - - - -
30/04:00pm 29.5 N 10 12 1008.8 - 0.0 - - - - - - -
30/03:30pm 29.7 N 10 12 1012.4 - 0.0 - - - - - - -
30/03:00pm 29.7 N 12 13 1006.8 - 0.0 - - - - - - -
30/02:30pm 29.5 N 12 14 1013.7 - 0.0 - - - - - - -
30/02:00pm 29.9 N 12 13 1013.5 - 0.0 - - - - - - -
30/01:30pm 29.6 N 10 13 1007.9 - 0.0 - - - - - - -
30/01:00pm 30.1 N 9 12 1010.3 - 0.0 - - - - - - -
30/12:30pm 29.2 N 11 13 1014.0 - 0.0 - - - - - - -
30/12:00pm 29.4 N 11 13 1009.4 - 0.0 - - - - - - -
30/11:30am 29.4 N 10 14 1014.6 - 0.0 - - - - - - -
30/11:00am 29.2 N 11 13 1011.7 - 0.0 - - - - - - -
30/10:30am 29.2 N 11 13 1014.4 - 0.0 - - - - - - -
30/10:00am 28.5 N 9 11 1014.4 - 0.0 - - - - - - -
30/09:30am 27.9 N 9 11 1014.4 - 0.0 - - - - - - -
30/09:00am 28.1 N 8 10 1011.0 - 0.0 - - - - - - -
30/08:30am 27.6 N 9 11 1012.4 - 0.0 - - - - - - -
30/08:00am 27.0 N 7 9 1012.0 - 0.0 - - - - - - -
30/07:30am 25.5 ENE 3 5 1010.6 - 0.0 - - - - - - -
30/07:00am 23.0 E 4 5 1011.5 - 0.0 - - - - - - -
30/06:30am 20.4 E 4 5 1011.2 - 0.0 - - - - - - -
30/06:00am 20.0 E 5 5 1014.5 - 0.0 - - - - - - -
30/05:30am 20.0 E 5 5 1010.6 - 0.0 - - - - - - -
30/05:00am 20.2 E 5 5 1008.9 - 0.0 - - - - - - -
30/04:30am 20.6 E 5 5 1014.3 - 0.0 - - - - - - -
30/04:00am 21.3 E 5 5 1010.2 - 0.0 - - - - - - -
30/03:30am 21.6 E 4 6 1011.3 - 0.0 - - - - - - -
30/03:00am 21.6 E 4 5 1014.4 - 0.0 - - - - - - -
30/02:30am 22.6 E 5 6 1014.6 - 0.0 - - - - - - -
30/02:00am 22.9 E 4 5 1009.6 - 0.0 - - - - - - -
30/01:30am 23.1 E 4 5 1014.8 - 0.0 - - - - - - -
30/01:00am 23.4 E 5 6 1011.0 - 0.0 - - - - - - -
30/12:30am 23.4 ENE 5 7 1015.1 - 0.0 - - - - - - -
30/12:00am 23.6 ENE 5 6 1010.6 - 0.0 - - - - - - -
 
Date/Time
CST
Temp

°C
Wind Pressure Rain
since 9am
mm
Weather Cloud Vis
km
Sea
Height
m
Swell
Dir
 
Speed
knots
Gust
knots
hPa Trend Height
m
Period
s
Dir
29/11:30pm 23.7 NE 5 6 1011.7 - 0.0 - - - - - - -
29/11:00pm 23.7 NNE 5 7 1015.2 - 0.0 - - - - - - -
29/10:30pm 23.6 NNE 5 6 1010.8 - 0.0 - - - - - - -
29/10:00pm 23.8 NNE 5 6 1011.6 - 0.0 - - - - - - -
29/09:30pm 22.9 NNE 4 5 1014.4 - 0.0 - - - - - - -
29/09:00pm 23.4 NNE 5 5 1009.8 - 0.0 - - - - - - -
29/08:30pm 24.5 NNE 5 5 1016.7 - 0.0 - - - - - - -
29/08:00pm 25.8 NNE 6 8 1010.8 - 0.0 - - - - - - -
29/07:30pm 26.5 NNE 6 8 1008.9 - 0.0 - - - - - - -
29/07:00pm 27.5 NNE 7 10 1010.3 - 0.0 - - - - - - -
29/06:30pm 27.9 N 9 12 1010.0 - 0.0 - - - - - - -
29/06:00pm 28.8 N 10 11 1007.9 - 0.0 - - - - - - -
29/05:30pm 29.3 N 11 14 1013.5 - 0.0 - - - - - - -
29/05:00pm 29.9 N 11 14 1007.3 - 0.0 - - - - - - -
29/04:30pm 29.8 N 11 13 1007.0 - 0.0 - - - - - - -
29/04:00pm 30.2 N 13 14 1013.7 - 0.0 - - - - - - -
29/03:30pm 30.6 N 13 15 1013.8 - 0.0 - - - - - - -
29/03:00pm 30.7 N 11 12 1007.7 - 0.0 - - - - - - -
29/02:30pm 30.7 N 12 13 1014.1 - 0.0 - - - - - - -
29/02:00pm 30.2 NNW 9 11 1008.2 - 0.0 - - - - - - -
29/01:30pm 30.5 NNW 9 11 1014.5 - 0.0 - - - - - - -
29/01:00pm 29.6 N 11 13 1014.7 - 0.0 - - - - - - -
29/12:30pm 29.8 N 12 13 1011.8 - 0.0 - - - - - - -
29/12:00pm 30.1 N 13 15 1012.2 - 0.0 - - - - - - -
29/11:30am 29.9 N 12 14 1012.7 - 0.0 - - - - - - -
29/11:00am 29.8 N 14 15 1015.9 - 0.0 - - - - - - -
29/10:30am 29.6 N 12 13 1012.2 - 0.0 - - - - - - -
29/10:00am 29.6 N 11 13 1015.8 - 0.0 - - - - - - -
29/09:30am 28.8 N 12 15 1013.4 - 0.0 - - - - - - -
29/09:00am 28.9 NNE 7 11 1012.5 - 0.0 - - - - - - -
29/08:30am 28.1 NE 7 11 1015.5 - 0.0 - - - - - - -
29/08:00am 26.8 NE 7 11 1015.4 - 0.0 - - - - - - -
29/07:30am 26.0 E 4 5 1015.4 - 0.0 - - - - - - -
29/07:00am 23.2 E 4 6 1015.1 - 0.0 - - - - - - -
29/06:30am 20.5 E 4 5 1015.1 - 0.0 - - - - - - -
29/06:00am 21.4 E 5 6 1010.9 - 0.0 - - - - - - -
29/05:30am 21.5 E 5 6 1015.1 - 0.0 - - - - - - -
29/05:00am 21.7 E 5 6 1015.1 - 0.0 - - - - - - -
29/04:30am 21.6 E 4 5 1011.2 - 0.0 - - - - - - -

Other Formats:

Comma delimited format used in spreadsheet applications
http://www.bom.gov.au/fwo/IDD60701/IDD60701.95146.axf

JavaScript Object Notation format (JSON) in row-major order
http://www.bom.gov.au/fwo/IDD60701/IDD60701.95146.json